METAR Data
IDs: Format: Raw Decoded Include TAF

Data at: 0942 UTC 18 Jan 2022

K2V6 180934Z AUTO 27009KT 10SM CLR M04/M08 A2980 RMK AO2
K2V6 180914Z AUTO 27010KT 10SM CLR M03/M08 A2980 RMK AO2
K2V6 180854Z AUTO 27008KT 10SM CLR M03/M08 A2981 RMK AO2
K2V6 180834Z AUTO 26009KT 10SM CLR M03/M07 A2981 RMK AO2
K2V6 180814Z AUTO 28008KT 10SM CLR M02/M07 A2982 RMK AO2
K2V6 180754Z AUTO 24007KT 10SM CLR M01/M07 A2981 RMK AO2
K2V6 180734Z AUTO 26008KT 10SM CLR M03/M07 A2982 RMK AO2
K2V6 180714Z AUTO 26008KT 10SM CLR M04/M08 A2983 RMK AO2
K2V6 180654Z AUTO 26007KT 10SM CLR M02/M07 A2984 RMK AO2
K2V6 180634Z AUTO 25007KT 10SM CLR M03/M08 A2984 RMK AO2
K2V6 180614Z AUTO 25008KT 10SM CLR M03/M08 A2984 RMK AO2
K2V6 180554Z AUTO 25008KT 10SM CLR M03/M08 A2985 RMK AO2
K2V6 180534Z AUTO 26007KT 10SM CLR M03/M08 A2985 RMK AO2
K2V6 180514Z AUTO 25009KT 10SM CLR M03/M08 A2985 RMK AO2
K2V6 180454Z AUTO 26008KT 10SM CLR M03/M08 A2986 RMK AO2
K2V6 180434Z AUTO 26007KT 10SM CLR M02/M07 A2986 RMK AO2
K2V6 180414Z AUTO 26006KT 10SM CLR M02/M08 A2987 RMK AO2
K2V6 180354Z AUTO 25007KT 10SM CLR M02/M08 A2987 RMK AO2
K2V6 180334Z AUTO 26006KT 10SM CLR M01/M08 A2987 RMK AO2
K2V6 180314Z AUTO 25007KT 10SM CLR 00/M07 A2987 RMK AO2
K2V6 180254Z AUTO 24006KT 10SM CLR 01/M06 A2987 RMK AO2
K2V6 180234Z AUTO 25004KT 10SM CLR 02/M06 A2987 RMK AO2
K2V6 180214Z AUTO 22005G09KT 10SM CLR 02/M06 A2987 RMK AO2
K2V6 180154Z AUTO 00000KT 10SM CLR 02/M07 A2985 RMK AO2
K2V6 180134Z AUTO 02005KT 10SM CLR 02/M07 A2984 RMK AO2
K2V6 180114Z AUTO 02007KT 10SM CLR 04/M06 A2984 RMK AO2
K2V6 180054Z AUTO 02009KT 10SM CLR 03/M08 A2984 RMK AO2
K2V6 180034Z AUTO 01007KT 10SM CLR 05/M07 A2985 RMK AO2
K2V6 180014Z AUTO 36004KT 10SM CLR 06/M07 A2985 RMK AO2
K2V6 172354Z AUTO 00000KT 10SM CLR 07/M06 A2986 RMK AO2
K2V6 172334Z AUTO 01004KT 10SM CLR 08/M06 A2986 RMK AO2
K2V6 172314Z AUTO 36005KT 10SM CLR 11/M06 A2986 RMK AO2
K2V6 172254Z AUTO 34006KT 10SM CLR 12/M06 A2986 RMK AO2
K2V6 172234Z AUTO 32005KT 10SM CLR 13/M06 A2987 RMK AO2
K2V6 172214Z AUTO 34005KT 10SM CLR 13/M06 A2987 RMK AO2
K2V6 172154Z AUTO 33009KT 10SM CLR 13/M06 A2987 RMK AO2
K2V6 172134Z AUTO 31008KT 10SM CLR 13/M06 A2987 RMK AO2
K2V6 172114Z AUTO 33009G16KT 10SM CLR 13/M06 A2987 RMK AO2
K2V6 172054Z AUTO 32010KT 10SM CLR 14/M06 A2987 RMK AO2
K2V6 172034Z AUTO 33010G14KT 10SM CLR 13/M07 A2987 RMK AO2
K2V6 172014Z AUTO 35010KT 10SM CLR 13/M07 A2987 RMK AO2
K2V6 171954Z AUTO 33012KT 10SM CLR 13/M07 A2987 RMK AO2
K2V6 171934Z AUTO 33013G17KT 10SM CLR 13/M18 A2989 RMK AO2
K2V6 171914Z AUTO 33013KT 10SM CLR 13/M07 A2990 RMK AO2
K2V6 171854Z AUTO 33014KT 10SM CLR 12/M16 A2991 RMK AO2
K2V6 171834Z AUTO 33010G19KT 10SM CLR 12/M15 A2992 RMK AO2
K2V6 171814Z AUTO 31011G17KT 10SM CLR 12/M14 A2993 RMK AO2
K2V6 171754Z AUTO 29011KT 10SM CLR 11/M11 A2994 RMK AO2
K2V6 171734Z AUTO 28012KT 10SM CLR 11/M11 A2995 RMK AO2
K2V6 171714Z AUTO 28011KT 10SM CLR 10/M08 A2995 RMK AO2
K2V6 171654Z AUTO 27007KT 10SM CLR 07/M06 A2995 RMK AO2
K2V6 171634Z AUTO 26010KT 10SM CLR 05/M05 A2995 RMK AO2
K2V6 171614Z AUTO 25008KT 10SM CLR 03/M05 A2995 RMK AO2
K2V6 171554Z AUTO 26007KT 10SM CLR 01/M06 A2994 RMK AO2
K2V6 171534Z AUTO 26008KT 10SM CLR 00/M06 A2994 RMK AO2
K2V6 171514Z AUTO 26008KT 10SM CLR M01/M06 A2993 RMK AO2
K2V6 171454Z AUTO 26008KT 10SM CLR M02/M07 A2993 RMK AO2
K2V6 171434Z AUTO 25009KT 10SM CLR M02/M07 A2993 RMK AO2
K2V6 171414Z AUTO 25009KT 10SM CLR M03/M07 A2992 RMK AO2
K2V6 171354Z AUTO 25009KT 10SM CLR M03/M07 A2992 RMK AO2
K2V6 171334Z AUTO 25008KT 10SM CLR M03/M07 A2992 RMK AO2
K2V6 171314Z AUTO 24010KT 10SM CLR M03/M07 A2992 RMK AO2
K2V6 171254Z AUTO 24010KT 10SM CLR M03/M07 A2992 RMK AO2
K2V6 171234Z AUTO 25008KT 10SM CLR M03/M07 A2993 RMK AO2
K2V6 171214Z AUTO 24010KT 10SM CLR M04/M07 A2992 RMK AO2
K2V6 171154Z AUTO 24009KT 10SM CLR M05/M08 A2993 RMK AO2
K2V6 171134Z AUTO 24007KT 10SM CLR M05/M07 A2994 RMK AO2
K2V6 171114Z AUTO 23006KT 10SM CLR M04/M07 A2995 RMK AO2
K2V6 171054Z AUTO 21007KT 10SM CLR M03/M07 A2996 RMK AO2
K2V6 171034Z AUTO 21006KT 10SM CLR M03/M07 A2997 RMK AO2
K2V6 171014Z AUTO 22006KT 10SM CLR M04/M07 A2998 RMK AO2
K2V6 170954Z AUTO 22006KT 10SM CLR M05/M07 A2999 RMK AO2
K2V6 170934Z AUTO 22007KT 10SM CLR M05/M07 A3000 RMK AO2
K2V6 170914Z AUTO 22008KT 10SM CLR M05/M07 A3000 RMK AO2
K2V6 170854Z AUTO 22008KT 10SM CLR M05/M07 A3002 RMK AO2
K2V6 170834Z AUTO 22007KT 10SM CLR M04/M07 A3003 RMK AO2
K2V6 170814Z AUTO 25004KT 10SM CLR M04/M07 A3003 RMK AO2
K2V6 170754Z AUTO 23008KT 10SM CLR M05/M07 A3004 RMK AO2
K2V6 170734Z AUTO 22007KT 10SM CLR M05/M07 A3004 RMK AO2
K2V6 170714Z AUTO 23008KT 10SM CLR M05/M07 A3006 RMK AO2
K2V6 170654Z AUTO 24009KT 10SM CLR M06/M08 A3007 RMK AO2
K2V6 170634Z AUTO 24007KT 10SM CLR M06/M08 A3008 RMK AO2
K2V6 170614Z AUTO 25007KT 10SM CLR M05/M08 A3009 RMK AO2
K2V6 170554Z AUTO 25008KT 10SM CLR M06/M08 A3009 RMK AO2
K2V6 170534Z AUTO 25005KT 10SM CLR M06/M08 A3010 RMK AO2
K2V6 170514Z AUTO 24006KT 10SM CLR M06/M08 A3010 RMK AO2
K2V6 170454Z AUTO 25007KT 10SM CLR M06/M08 A3011 RMK AO2
K2V6 170434Z AUTO 23006KT 10SM CLR M06/M08 A3011 RMK AO2
K2V6 170414Z AUTO 24007KT 10SM CLR M05/M07 A3012 RMK AO2
K2V6 170354Z AUTO 23007KT 10SM CLR M05/M08 A3012 RMK AO2
K2V6 170334Z AUTO 25007KT 10SM CLR M06/M09 A3012 RMK AO2
K2V6 170314Z AUTO 25004KT 10SM CLR M06/M10 A3013 RMK AO2
K2V6 170254Z AUTO 26004KT 10SM CLR M05/M08 A3013 RMK AO2
K2V6 170234Z AUTO 28003KT 10SM CLR M05/M08 A3013 RMK AO2
K2V6 170214Z AUTO 00000KT 10SM CLR M02/M07 A3013 RMK AO2
K2V6 170154Z AUTO 00000KT 10SM CLR M01/M06 A3013 RMK AO2
K2V6 170134Z AUTO 01005KT 10SM CLR 00/M06 A3012 RMK AO2
K2V6 170114Z AUTO 36003KT 10SM CLR 00/M06 A3012 RMK AO2
K2V6 170054Z AUTO 36005KT 10SM CLR 00/M06 A3010 RMK AO2
K2V6 170034Z AUTO 01005KT 10SM CLR 01/M06 A3010 RMK AO2
K2V6 170014Z AUTO 35004KT 10SM CLR 03/M10 A3009 RMK AO2
K2V6 162354Z AUTO 00000KT 10SM CLR 04/M11 A3009 RMK AO2
K2V6 162334Z AUTO 36006KT 10SM CLR 05/M12 A3009 RMK AO2
K2V6 162314Z AUTO 35010KT 10SM CLR 06/M12 A3009 RMK AO2
K2V6 162254Z AUTO 35010G16KT 10SM CLR 07/M12 A3009 RMK AO2
K2V6 162234Z AUTO 35014G21KT 10SM CLR 07/M13 A3008 RMK AO2
K2V6 162214Z AUTO 35017G25KT 10SM CLR 08/M13 A3008 RMK AO2
K2V6 162154Z AUTO 34017G22KT 10SM CLR 08/M13 A3007 RMK AO2